Time,TemperatureF,DewpointF,PressureIn,WindDirection,WindDirectionDegrees,WindSpeedMPH,WindSpeedGustMPH,Humidity,HourlyPrecipIn,Conditions,Clouds,dailyrainin,SoftwareType,DateUTC
2013-02-24 00:03:00,43.5,34.0,30.14,WSW,237,0.0,0.0,69,0.00,,---,0.00,VWS V14.01,2013-02-24 08:03:00,
2013-02-24 00:08:00,44.1,34.2,30.14,WSW,237,1.0,2.0,68,0.00,,---,0.00,VWS V14.01,2013-02-24 08:08:00,
2013-02-24 00:13:00,44.6,34.0,30.14,WSW,237,0.0,2.0,66,0.00,,---,0.00,VWS V14.01,2013-02-24 08:13:00,
2013-02-24 00:18:00,44.9,33.9,30.14,WSW,237,0.0,2.0,65,0.00,,---,0.00,VWS V14.01,2013-02-24 08:18:00,
2013-02-24 00:23:00,44.9,33.9,30.14,WSW,237,0.0,2.0,65,0.00,,---,0.00,VWS V14.01,2013-02-24 08:23:00,
2013-02-24 00:28:00,44.6,33.6,30.14,WSW,237,0.0,2.0,65,0.00,,---,0.00,VWS V14.01,2013-02-24 08:28:00,
2013-02-24 00:33:00,44.1,33.9,30.14,WSW,237,0.0,0.0,67,0.00,,---,0.00,VWS V14.01,2013-02-24 08:33:00,
2013-02-24 00:38:00,43.9,33.3,30.14,WSW,237,0.0,0.0,66,0.00,,---,0.00,VWS V14.01,2013-02-24 08:38:00,
2013-02-24 00:43:00,43.9,33.3,30.14,WSW,237,0.0,0.0,66,0.00,,---,0.00,VWS V14.01,2013-02-24 08:43:00,
2013-02-24 00:48:00,43.8,33.2,30.14,WSW,237,0.0,0.0,66,0.00,,---,0.00,VWS V14.01,2013-02-24 08:48:00,
2013-02-24 00:53:00,43.6,33.0,30.14,WSW,237,0.0,0.0,66,0.00,,---,0.00,VWS V14.01,2013-02-24 08:53:00,
2013-02-24 00:58:00,43.8,32.8,30.14,SW,215,0.0,0.0,65,0.00,,---,0.00,VWS V14.01,2013-02-24 08:58:00,
2013-02-24 01:03:00,44.2,32.8,30.14,SSW,201,0.0,0.0,64,0.00,,---,0.00,VWS V14.01,2013-02-24 09:03:00,
2013-02-24 01:08:00,43.5,33.7,30.14,WNW,283,0.0,0.0,68,0.00,,---,0.00,VWS V14.01,2013-02-24 09:08:00,
2013-02-24 01:13:00,42.9,33.1,30.14,WSW,252,0.0,0.0,68,0.00,,---,0.00,VWS V14.01,2013-02-24 09:13:00,
2013-02-24 01:18:00,42.6,32.8,30.14,WSW,252,0.0,0.0,68,0.00,,---,0.00,VWS V14.01,2013-02-24 09:18:00,
2013-02-24 01:23:00,42.3,32.9,30.14,WSW,252,0.0,0.0,69,0.00,,---,0.00,VWS V14.01,2013-02-24 09:23:00,
2013-02-24 01:28:00,42.3,32.5,30.14,WSW,252,0.0,0.0,68,0.00,,---,0.00,VWS V14.01,2013-02-24 09:28:00,
2013-02-24 01:33:00,42.3,32.9,30.14,WSW,252,0.0,0.0,69,0.00,,---,0.00,VWS V14.01,2013-02-24 09:33:00,
2013-02-24 01:38:00,42.1,32.7,30.14,WSW,252,0.0,0.0,69,0.00,,---,0.00,VWS V14.01,2013-02-24 09:38:00,
2013-02-24 01:43:00,41.9,32.8,30.14,WSW,252,0.0,0.0,70,0.00,,---,0.00,VWS V14.01,2013-02-24 09:43:00,
2013-02-24 01:49:00,41.8,32.8,30.14,WSW,252,0.0,0.0,70,0.00,,---,0.00,VWS V14.01,2013-02-24 09:49:00,
2013-02-24 01:54:00,41.3,32.6,30.14,WSW,252,0.0,0.0,71,0.00,,---,0.00,VWS V14.01,2013-02-24 09:54:00,
2013-02-24 01:59:00,41.1,32.4,30.14,WSW,252,0.0,0.0,71,0.00,,---,0.00,VWS V14.01,2013-02-24 09:59:00,
2013-02-24 02:04:00,41.1,32.4,30.13,WSW,252,0.0,0.0,71,0.00,,---,0.00,VWS V14.01,2013-02-24 10:04:00,
2013-02-24 02:09:00,41.2,32.5,30.13,SE,135,0.0,0.0,71,0.00,,---,0.00,VWS V14.01,2013-02-24 10:09:00,
2013-02-24 02:14:00,41.1,32.8,30.13,SSW,192,0.0,2.0,72,0.00,,---,0.00,VWS V14.01,2013-02-24 10:14:00,
2013-02-24 02:19:00,40.9,32.6,30.13,SSW,193,0.0,3.0,72,0.00,,---,0.00,VWS V14.01,2013-02-24 10:19:00,
2013-02-24 02:24:00,41.1,32.4,30.13,NE,34,2.0,3.0,71,0.00,,---,0.00,VWS V14.01,2013-02-24 10:24:00,
2013-02-24 02:29:00,40.8,32.5,30.13,NE,34,0.0,3.0,72,0.00,,---,0.00,VWS V14.01,2013-02-24 10:29:00,
2013-02-24 02:34:00,40.5,32.5,30.13,NE,34,0.0,0.0,73,0.00,,---,0.00,VWS V14.01,2013-02-24 10:34:00,
2013-02-24 02:39:00,40.8,32.1,30.13,NE,34,0.0,0.0,71,0.00,,---,0.00,VWS V14.01,2013-02-24 10:39:00,
2013-02-24 02:44:00,40.5,32.2,30.13,NNE,19,0.0,0.0,72,0.00,,---,0.00,VWS V14.01,2013-02-24 10:44:00,
2013-02-24 02:49:00,39.9,32.3,30.13,NNE,19,0.0,0.0,74,0.00,,---,0.00,VWS V14.01,2013-02-24 10:49:00,
2013-02-24 02:54:00,39.6,32.3,30.13,NNE,21,0.0,0.0,75,0.00,,---,0.00,VWS V14.01,2013-02-24 10:54:00,
2013-02-24 02:59:00,39.3,32.4,30.13,SSW,195,0.0,1.0,76,0.00,,---,0.00,VWS V14.01,2013-02-24 10:59:00,
2013-02-24 03:04:00,39.3,32.7,30.13,SSW,195,0.0,0.0,77,0.00,,---,0.00,VWS V14.01,2013-02-24 11:04:00,
2013-02-24 03:09:00,39.6,33.0,30.13,SE,138,0.0,2.0,77,0.00,,---,0.00,VWS V14.01,2013-02-24 11:09:00,
2013-02-24 03:14:00,39.5,32.9,30.13,SE,138,0.0,2.0,77,0.00,,---,0.00,VWS V14.01,2013-02-24 11:14:00,
2013-02-24 03:19:00,39.5,33.2,30.12,SE,138,0.0,2.0,78,0.00,,---,0.00,VWS V14.01,2013-02-24 11:19:00,
2013-02-24 03:24:00,40.1,32.8,30.12,SE,138,0.0,2.0,75,0.00,,---,0.00,VWS V14.01,2013-02-24 11:24:00,
2013-02-24 03:29:00,39.9,32.6,30.12,SE,138,0.0,2.0,75,0.00,,---,0.00,VWS V14.01,2013-02-24 11:29:00,
2013-02-24 03:34:00,39.8,32.9,30.12,SE,138,0.0,0.0,76,0.00,,---,0.00,VWS V14.01,2013-02-24 11:34:00,
2013-02-24 03:39:00,39.9,33.3,30.12,ENE,57,0.0,0.0,77,0.00,,---,0.00,VWS V14.01,2013-02-24 11:39:00,
2013-02-24 03:44:00,39.6,32.7,30.12,NNW,338,0.0,0.0,76,0.00,,---,0.00,VWS V14.01,2013-02-24 11:44:00,
2013-02-24 03:49:00,39.5,32.9,30.12,East,82,0.0,0.0,77,0.00,,---,0.00,VWS V14.01,2013-02-24 11:49:00,
2013-02-24 03:55:00,39.3,33.0,30.12,ESE,107,0.0,0.0,78,0.00,,---,0.00,VWS V14.01,2013-02-24 11:55:00,
2013-02-24 04:00:00,39.2,32.9,30.12,ESE,107,0.0,0.0,78,0.00,,---,0.00,VWS V14.01,2013-02-24 12:00:00,
2013-02-24 04:05:00,39.1,33.5,30.12,ESE,107,0.0,0.0,80,0.00,,---,0.00,VWS V14.01,2013-02-24 12:05:00,
2013-02-24 04:10:00,39.1,33.5,30.12,North,5,0.0,0.0,80,0.00,,---,0.00,VWS V14.01,2013-02-24 12:10:00,
2013-02-24 04:15:00,38.9,33.6,30.12,North,5,0.0,0.0,81,0.00,,---,0.00,VWS V14.01,2013-02-24 12:15:00,
2013-02-24 04:20:00,38.6,33.3,30.13,North,351,0.0,0.0,81,0.00,,---,0.00,VWS V14.01,2013-02-24 12:20:00,
2013-02-24 04:25:00,38.3,33.0,30.13,North,351,0.0,0.0,81,0.00,,---,0.00,VWS V14.01,2013-02-24 12:25:00,
2013-02-24 04:30:00,38.3,33.0,30.13,North,351,0.0,0.0,81,0.00,,---,0.00,VWS V14.01,2013-02-24 12:30:00,
2013-02-24 04:35:00,38.0,33.0,30.13,North,351,0.0,0.0,82,0.00,,---,0.00,VWS V14.01,2013-02-24 12:35:00,
2013-02-24 04:40:00,37.9,32.9,30.13,North,351,0.0,0.0,82,0.00,,---,0.00,VWS V14.01,2013-02-24 12:40:00,
2013-02-24 04:45:00,37.8,33.1,30.13,WNW,283,0.0,0.0,83,0.00,,---,0.00,VWS V14.01,2013-02-24 12:45:00,
2013-02-24 04:50:00,37.6,32.9,30.13,WNW,283,0.0,0.0,83,0.00,,---,0.00,VWS V14.01,2013-02-24 12:50:00,
2013-02-24 04:55:00,37.3,32.6,30.13,WNW,283,0.0,0.0,83,0.00,,---,0.00,VWS V14.01,2013-02-24 12:55:00,
2013-02-24 05:01:00,37.2,32.8,30.13,WNW,283,0.0,1.0,84,0.00,,---,0.00,VWS V14.01,2013-02-24 13:01:00,
2013-02-24 05:06:00,37.0,32.6,30.13,WNW,283,0.0,0.0,84,0.00,,---,0.00,VWS V14.01,2013-02-24 13:06:00,
2013-02-24 05:11:00,36.9,32.8,30.13,WNW,283,0.0,0.0,85,0.00,,---,0.00,VWS V14.01,2013-02-24 13:11:00,
2013-02-24 05:16:00,36.8,32.7,30.13,WNW,283,0.0,3.0,85,0.00,,---,0.00,VWS V14.01,2013-02-24 13:16:00,
2013-02-24 05:21:00,36.6,32.5,30.13,WNW,283,0.0,3.0,85,0.00,,---,0.00,VWS V14.01,2013-02-24 13:21:00,
2013-02-24 05:26:00,36.6,32.8,30.13,WSW,247,0.0,4.0,86,0.00,,---,0.00,VWS V14.01,2013-02-24 13:26:00,
2013-02-24 05:31:00,36.6,32.8,30.13,WSW,247,0.0,4.0,86,0.00,,---,0.00,VWS V14.01,2013-02-24 13:31:00,
2013-02-24 05:36:00,36.6,32.8,30.14,WSW,247,0.0,0.0,86,0.00,,---,0.00,VWS V14.01,2013-02-24 13:36:00,
2013-02-24 05:41:00,36.8,33.0,30.14,WSW,247,0.0,0.0,86,0.00,,---,0.00,VWS V14.01,2013-02-24 13:41:00,
2013-02-24 05:46:00,36.6,32.8,30.14,WSW,247,0.0,0.0,86,0.00,,---,0.00,VWS V14.01,2013-02-24 13:46:00,
2013-02-24 05:51:00,36.6,32.8,30.14,WSW,247,0.0,0.0,86,0.00,,---,0.00,VWS V14.01,2013-02-24 13:51:00,
2013-02-24 05:56:00,37.0,33.5,30.14,WSW,247,0.0,0.0,87,0.00,,---,0.00,VWS V14.01,2013-02-24 13:56:00,
2013-02-24 06:01:00,36.9,33.1,30.14,NW,305,0.0,0.0,86,0.00,,---,0.00,VWS V14.01,2013-02-24 14:01:00,
2013-02-24 06:06:00,36.8,33.0,30.15,NW,305,0.0,0.0,86,0.00,,---,0.00,VWS V14.01,2013-02-24 14:06:00,
2013-02-24 06:11:00,36.8,33.3,30.15,WNW,298,0.0,1.0,87,0.00,,---,0.00,VWS V14.01,2013-02-24 14:11:00,
2013-02-24 06:16:00,36.6,33.1,30.15,WNW,298,0.0,1.0,87,0.00,,---,0.00,VWS V14.01,2013-02-24 14:16:00,
2013-02-24 06:21:00,36.5,33.0,30.15,WNW,298,0.0,1.0,87,0.00,,---,0.00,VWS V14.01,2013-02-24 14:21:00,
2013-02-24 06:26:00,36.3,32.8,30.15,WNW,298,0.0,1.0,87,0.00,,---,0.00,VWS V14.01,2013-02-24 14:26:00,
2013-02-24 06:31:00,36.2,32.7,30.16,WNW,298,0.0,1.0,87,0.00,,---,0.00,VWS V14.01,2013-02-24 14:31:00,
2013-02-24 06:36:00,36.0,32.5,30.16,WNW,298,0.0,2.0,87,0.00,,---,0.00,VWS V14.01,2013-02-24 14:36:00,
2013-02-24 06:41:00,36.0,32.5,30.16,WNW,298,0.0,2.0,87,0.00,,---,0.00,VWS V14.01,2013-02-24 14:41:00,
2013-02-24 06:46:00,36.0,32.5,30.16,WNW,298,0.0,2.0,87,0.00,,---,0.00,VWS V14.01,2013-02-24 14:46:00,
2013-02-24 06:52:00,36.0,32.5,30.16,WNW,298,0.0,2.0,87,0.00,,---,0.00,VWS V14.01,2013-02-24 14:52:00,
2013-02-24 06:57:00,35.9,32.4,30.16,WNW,298,0.0,2.0,87,0.00,,---,0.00,VWS V14.01,2013-02-24 14:57:00,
2013-02-24 07:01:00,35.9,32.4,30.16,WNW,296,0.0,2.0,87,0.00,,---,0.00,VWS V14.01,2013-02-24 15:01:00,
2013-02-24 07:07:00,36.0,32.8,30.16,WNW,291,0.0,0.0,88,0.00,,---,0.00,VWS V14.01,2013-02-24 15:07:00,
2013-02-24 07:12:00,35.9,32.1,30.16,WNW,303,0.0,3.0,86,0.00,,---,0.00,VWS V14.01,2013-02-24 15:12:00,
2013-02-24 07:17:00,36.0,32.5,30.17,WNW,303,0.0,3.0,87,0.00,,---,0.00,VWS V14.01,2013-02-24 15:17:00,
2013-02-24 07:22:00,36.2,32.7,30.17,WNW,303,0.0,3.0,87,0.00,,---,0.00,VWS V14.01,2013-02-24 15:22:00,
2013-02-24 07:27:00,36.3,32.8,30.17,WNW,284,0.0,3.0,87,0.00,,---,0.00,VWS V14.01,2013-02-24 15:27:00,
2013-02-24 07:32:00,36.8,33.0,30.17,South,180,0.0,5.0,86,0.00,,---,0.00,VWS V14.01,2013-02-24 15:32:00,
2013-02-24 07:37:00,37.2,33.4,30.17,NW,314,0.0,0.0,86,0.00,,---,0.00,VWS V14.01,2013-02-24 15:37:00,
2013-02-24 07:42:00,37.5,33.4,30.17,NW,314,0.0,3.0,85,0.00,,---,0.00,VWS V14.01,2013-02-24 15:42:00,
2013-02-24 07:47:00,37.6,33.2,30.18,NW,314,0.0,3.0,84,0.00,,---,0.00,VWS V14.01,2013-02-24 15:47:00,
2013-02-24 07:52:00,37.8,33.1,30.18,NW,314,0.0,3.0,83,0.00,,---,0.00,VWS V14.01,2013-02-24 15:52:00,
2013-02-24 07:57:00,38.0,33.3,30.18,NW,314,0.0,3.0,83,0.00,,---,0.00,VWS V14.01,2013-02-24 15:57:00,
2013-02-24 08:02:00,38.2,33.2,30.18,NW,314,0.0,3.0,82,0.00,,---,0.00,VWS V14.01,2013-02-24 16:02:00,
2013-02-24 08:07:00,38.5,33.2,30.18,NW,314,0.0,0.0,81,0.00,,---,0.00,VWS V14.01,2013-02-24 16:07:00,
2013-02-24 08:12:00,38.9,34.0,30.18,NW,314,0.0,-999.0,81,-99.99,,,0.00,weatherlink.com 1.10,2013-02-24 16:12:00,
2013-02-24 08:17:00,39.3,33.3,30.19,NW,314,0.0,0.0,79,0.00,,---,0.00,VWS V14.01,2013-02-24 16:17:00,
2013-02-24 08:22:00,39.8,33.8,30.19,NW,314,0.0,0.0,79,0.00,,---,0.00,VWS V14.01,2013-02-24 16:22:00,
2013-02-24 08:27:00,40.6,34.3,30.19,NW,309,0.0,0.0,78,0.00,,---,0.00,VWS V14.01,2013-02-24 16:27:00,
2013-02-24 08:32:00,41.1,34.5,30.19,NW,309,0.0,0.0,77,0.00,,---,0.00,VWS V14.01,2013-02-24 16:32:00,
2013-02-24 08:37:00,41.5,34.5,30.19,NW,308,0.0,0.0,76,0.00,,---,0.00,VWS V14.01,2013-02-24 16:37:00,
2013-02-24 08:42:00,42.1,35.1,30.19,NW,309,0.0,0.0,76,0.00,,---,0.00,VWS V14.01,2013-02-24 16:42:00,
2013-02-24 08:47:00,42.9,35.5,30.18,NW,309,0.0,0.0,75,0.00,,---,0.00,VWS V14.01,2013-02-24 16:47:00,
2013-02-24 08:52:00,43.8,35.4,30.18,NW,309,0.0,0.0,72,0.00,,---,0.00,VWS V14.01,2013-02-24 16:52:00,
2013-02-24 08:57:00,45.1,35.5,30.18,NE,52,0.0,5.0,69,0.00,,---,0.00,VWS V14.01,2013-02-24 16:57:00,
2013-02-24 09:02:00,46.5,35.0,30.18,NE,52,4.0,5.0,64,0.00,,---,0.00,VWS V14.01,2013-02-24 17:02:00,
2013-02-24 09:07:00,47.9,34.3,30.18,NNE,27,0.0,5.0,59,0.00,,---,0.00,VWS V14.01,2013-02-24 17:07:00,
2013-02-24 09:12:00,48.9,32.1,30.18,ENE,62,3.0,6.0,52,0.00,,---,0.00,VWS V14.01,2013-02-24 17:12:00,
2013-02-24 09:17:00,49.8,30.9,30.19,ENE,61,0.0,6.0,48,0.00,,---,0.00,VWS V14.01,2013-02-24 17:17:00,
2013-02-24 09:22:00,50.7,31.7,30.19,ENE,63,0.0,6.0,48,0.00,,---,0.00,VWS V14.01,2013-02-24 17:22:00,
2013-02-24 09:27:00,51.4,30.8,30.19,NE,46,0.0,6.0,45,0.00,,---,0.00,VWS V14.01,2013-02-24 17:27:00,
2013-02-24 09:32:00,51.9,31.2,30.19,ENE,74,3.0,3.0,45,0.00,,---,0.00,VWS V14.01,2013-02-24 17:32:00,
2013-02-24 09:37:00,52.2,32.1,30.19,NE,37,0.0,6.0,46,0.00,,---,0.00,VWS V14.01,2013-02-24 17:37:00,
2013-02-24 09:42:00,52.5,30.1,30.19,ENE,66,0.0,6.0,42,0.00,,---,0.00,VWS V14.01,2013-02-24 17:42:00,
2013-02-24 09:47:00,52.8,30.9,30.19,NE,54,3.0,6.0,43,0.00,,---,0.00,VWS V14.01,2013-02-24 17:47:00,
2013-02-24 09:52:00,53.1,30.6,30.19,ENE,78,0.0,6.0,42,0.00,,---,0.00,VWS V14.01,2013-02-24 17:52:00,
2013-02-24 09:57:00,53.3,30.8,30.19,ENE,78,5.0,6.0,42,0.00,,---,0.00,VWS V14.01,2013-02-24 17:57:00,
2013-02-24 10:02:00,53.6,30.5,30.19,East,92,0.0,0.0,41,0.00,,---,0.00,VWS V14.01,2013-02-24 18:02:00,
2013-02-24 10:08:00,54.1,28.4,30.19,NE,56,0.0,4.0,37,0.00,,---,0.00,VWS V14.01,2013-02-24 18:08:00,
2013-02-24 10:13:00,54.4,32.4,30.19,East,82,0.0,5.0,43,0.00,,---,0.00,VWS V14.01,2013-02-24 18:13:00,
2013-02-24 10:18:00,54.4,33.0,30.18,East,86,0.0,5.0,44,0.00,,---,0.00,VWS V14.01,2013-02-24 18:18:00,
2013-02-24 10:23:00,54.4,33.0,30.18,East,91,0.0,5.0,44,0.00,,---,0.00,VWS V14.01,2013-02-24 18:23:00,
2013-02-24 10:28:00,54.7,32.7,30.18,ESE,119,0.0,5.0,43,0.00,,---,0.00,VWS V14.01,2013-02-24 18:28:00,
2013-02-24 10:33:00,55.1,31.8,30.18,ENE,65,3.0,4.0,41,0.00,,---,0.00,VWS V14.01,2013-02-24 18:33:00,
2013-02-24 10:38:00,55.4,29.6,30.18,NNE,17,0.0,5.0,37,0.00,,---,0.00,VWS V14.01,2013-02-24 18:38:00,
2013-02-24 10:43:00,56.0,30.8,30.18,NE,44,0.0,5.0,38,0.00,,---,0.00,VWS V14.01,2013-02-24 18:43:00,
2013-02-24 10:48:00,56.3,28.3,30.18,ENE,73,0.0,6.0,34,0.00,,---,0.00,VWS V14.01,2013-02-24 18:48:00,
2013-02-24 10:53:00,56.6,30.6,30.18,ENE,66,4.0,6.0,37,0.00,,---,0.00,VWS V14.01,2013-02-24 18:53:00,
2013-02-24 10:58:00,56.6,28.6,30.18,NNE,26,0.0,6.0,34,0.00,,---,0.00,VWS V14.01,2013-02-24 18:58:00,
2013-02-24 11:03:00,56.7,30.1,30.18,NNE,28,0.0,0.0,36,0.00,,---,0.00,VWS V14.01,2013-02-24 19:03:00,
2013-02-24 11:08:00,56.9,29.5,30.18,ENE,61,0.0,5.0,35,0.00,,---,0.00,VWS V14.01,2013-02-24 19:08:00,
2013-02-24 11:13:00,57.2,30.0,30.18,NE,41,0.0,-999.0,36,-99.99,,,0.00,weatherlink.com 1.10,2013-02-24 19:13:00,
2013-02-24 11:18:00,57.6,30.2,30.18,NE,36,5.0,6.0,35,0.00,,---,0.00,VWS V14.01,2013-02-24 19:18:00,
2013-02-24 11:23:00,57.6,29.5,30.18,NE,45,5.0,6.0,34,0.00,,---,0.00,VWS V14.01,2013-02-24 19:23:00,
2013-02-24 11:28:00,57.8,29.6,30.18,NNE,32,0.0,6.0,34,0.00,,---,0.00,VWS V14.01,2013-02-24 19:28:00,
2013-02-24 11:33:00,58.1,30.6,30.18,North,355,0.0,0.0,35,0.00,,---,0.00,VWS V14.01,2013-02-24 19:33:00,
2013-02-24 11:38:00,58.3,28.6,30.18,North,11,1.0,6.0,32,0.00,,---,0.00,VWS V14.01,2013-02-24 19:38:00,
2013-02-24 11:43:00,58.4,28.7,30.18,ENE,67,4.0,7.0,32,0.00,,---,0.00,VWS V14.01,2013-02-24 19:43:00,
2013-02-24 11:48:00,58.7,28.9,30.17,NE,48,0.0,7.0,32,0.00,,---,0.00,VWS V14.01,2013-02-24 19:48:00,
2013-02-24 11:53:00,59.2,28.6,30.17,ENE,64,6.0,7.0,31,0.00,,---,0.00,VWS V14.01,2013-02-24 19:53:00,
2013-02-24 11:58:00,59.5,28.9,30.17,ESE,107,0.0,7.0,31,0.00,,---,0.00,VWS V14.01,2013-02-24 19:58:00,
2013-02-24 12:03:00,59.8,29.1,30.16,ENE,61,5.0,7.0,31,0.00,,---,0.00,VWS V14.01,2013-02-24 20:03:00,
2013-02-24 12:08:00,59.6,28.1,30.16,East,88,0.0,7.0,30,0.00,,---,0.00,VWS V14.01,2013-02-24 20:08:00,
2013-02-24 12:13:00,59.3,28.7,30.16,NE,52,1.0,10.0,31,0.00,,---,0.00,VWS V14.01,2013-02-24 20:13:00,
2013-02-24 12:18:00,59.5,28.9,30.16,ENE,71,4.0,10.0,31,0.00,,---,0.00,VWS V14.01,2013-02-24 20:18:00,
2013-02-24 12:23:00,59.6,27.3,30.16,ENE,61,0.0,10.0,29,0.00,,---,0.00,VWS V14.01,2013-02-24 20:23:00,
2013-02-24 12:28:00,59.8,29.9,30.16,ENE,65,4.0,10.0,32,0.00,,---,0.00,VWS V14.01,2013-02-24 20:28:00,
2013-02-24 12:33:00,60.1,26.9,30.15,ENE,77,4.0,4.0,28,0.00,,---,0.00,VWS V14.01,2013-02-24 20:33:00,
2013-02-24 12:38:00,60.4,29.6,30.15,ENE,57,5.0,5.0,31,0.00,,---,0.00,VWS V14.01,2013-02-24 20:38:00,
2013-02-24 12:43:00,60.5,29.7,30.15,East,92,1.0,7.0,31,0.00,,---,0.00,VWS V14.01,2013-02-24 20:43:00,
2013-02-24 12:48:00,60.9,27.6,30.15,ENE,60,0.0,7.0,28,0.00,,---,0.00,VWS V14.01,2013-02-24 20:48:00,
2013-02-24 12:53:00,60.7,28.3,30.15,East,85,1.0,10.0,29,0.00,,---,0.00,VWS V14.01,2013-02-24 20:53:00,
2013-02-24 12:58:00,60.7,26.5,30.15,ENE,65,4.0,10.0,27,0.00,,---,0.00,VWS V14.01,2013-02-24 20:58:00,
2013-02-24 13:03:00,60.9,27.6,30.14,ENE,77,0.0,7.0,28,0.00,,---,0.00,VWS V14.01,2013-02-24 21:03:00,
2013-02-24 13:09:00,61.0,27.7,30.14,ENE,77,3.0,7.0,28,0.00,,---,0.00,VWS V14.01,2013-02-24 21:09:00,
2013-02-24 13:14:00,61.2,27.9,30.14,ENE,66,11.0,11.0,28,0.00,,---,0.00,VWS V14.01,2013-02-24 21:14:00,
2013-02-24 13:19:00,61.0,27.7,30.13,East,90,7.0,11.0,28,0.00,,---,0.00,VWS V14.01,2013-02-24 21:19:00,
2013-02-24 13:23:00,61.2,27.9,30.13,ENE,71,10.0,11.0,28,0.00,,---,0.00,VWS V14.01,2013-02-24 21:23:00,
2013-02-24 13:29:00,61.3,28.8,30.13,NE,55,5.0,11.0,29,0.00,,---,0.00,VWS V14.01,2013-02-24 21:29:00,
2013-02-24 13:34:00,61.6,28.2,30.13,NE,44,6.0,7.0,28,0.00,,---,0.00,VWS V14.01,2013-02-24 21:34:00,
2013-02-24 13:39:00,61.8,28.4,30.13,East,92,0.0,7.0,28,0.00,,---,0.00,VWS V14.01,2013-02-24 21:39:00,
2013-02-24 13:44:00,61.8,28.4,30.13,ENE,58,3.0,11.0,28,0.00,,---,0.00,VWS V14.01,2013-02-24 21:44:00,
2013-02-24 13:49:00,61.6,28.2,30.13,ENE,72,0.0,11.0,28,0.00,,---,0.00,VWS V14.01,2013-02-24 21:49:00,
2013-02-24 13:53:00,62.1,29.5,30.13,East,97,0.0,11.0,29,0.00,,---,0.00,VWS V14.01,2013-02-24 21:53:00,
2013-02-24 13:59:00,62.4,29.8,30.13,East,84,2.0,11.0,29,0.00,,---,0.00,VWS V14.01,2013-02-24 21:59:00,
2013-02-24 14:04:00,62.9,30.2,30.12,East,80,0.0,2.0,29,0.00,,---,0.00,VWS V14.01,2013-02-24 22:04:00,
2013-02-24 14:09:00,63.2,30.4,30.12,ENE,69,2.0,5.0,29,0.00,,---,0.00,VWS V14.01,2013-02-24 22:09:00,
2013-02-24 14:14:00,62.9,29.3,30.12,NE,49,5.0,7.0,28,0.00,,---,0.00,VWS V14.01,2013-02-24 22:14:00,
2013-02-24 14:19:00,62.6,30.8,30.12,ESE,111,2.0,7.0,30,0.00,,---,0.00,VWS V14.01,2013-02-24 22:19:00,
2013-02-24 14:24:00,62.7,30.0,30.12,NE,45,4.0,7.0,29,0.00,,---,0.00,VWS V14.01,2013-02-24 22:24:00,
2013-02-24 14:29:00,62.6,29.9,30.12,NE,49,4.0,8.0,29,0.00,,---,0.00,VWS V14.01,2013-02-24 22:29:00,
2013-02-24 14:34:00,62.6,29.1,30.13,East,94,1.0,5.0,28,0.00,,---,0.00,VWS V14.01,2013-02-24 22:34:00,
2013-02-24 14:39:00,62.6,29.1,30.13,ENE,62,1.0,5.0,28,0.00,,---,0.00,VWS V14.01,2013-02-24 22:39:00,
2013-02-24 14:44:00,62.7,30.8,30.13,East,88,0.0,5.0,30,0.00,,---,0.00,VWS V14.01,2013-02-24 22:44:00,
2013-02-24 14:49:00,62.9,29.3,30.12,ENE,58,0.0,6.0,28,0.00,,---,0.00,VWS V14.01,2013-02-24 22:49:00,
2013-02-24 14:54:00,63.1,29.5,30.12,ESE,107,0.0,6.0,28,0.00,,---,0.00,VWS V14.01,2013-02-24 22:54:00,
2013-02-24 14:59:00,63.4,29.8,30.12,East,87,0.0,6.0,28,0.00,,---,0.00,VWS V14.01,2013-02-24 22:59:00,
2013-02-24 15:04:00,63.5,29.0,30.12,NNW,342,0.0,0.0,27,0.00,,---,0.00,VWS V14.01,2013-02-24 23:04:00,
2013-02-24 15:09:00,63.4,33.8,30.12,WSW,252,0.0,5.0,33,0.00,,---,0.00,VWS V14.01,2013-02-24 23:09:00,
2013-02-24 15:14:00,63.2,35.1,30.12,WSW,250,6.0,10.0,35,0.00,,---,0.00,VWS V14.01,2013-02-24 23:14:00,
2013-02-24 15:19:00,63.2,35.1,30.12,West,261,1.0,10.0,35,0.00,,---,0.00,VWS V14.01,2013-02-24 23:19:00,
2013-02-24 15:24:00,63.5,34.7,30.12,West,279,4.0,10.0,34,0.00,,---,0.00,VWS V14.01,2013-02-24 23:24:00,
2013-02-24 15:29:00,63.4,33.8,30.12,WSW,254,0.0,10.0,33,0.00,,---,0.00,VWS V14.01,2013-02-24 23:29:00,
2013-02-24 15:34:00,63.4,33.8,30.12,West,262,0.0,5.0,33,0.00,,---,0.00,VWS V14.01,2013-02-24 23:34:00,
2013-02-24 15:39:00,63.5,33.9,30.12,West,271,0.0,5.0,33,0.00,,---,0.00,VWS V14.01,2013-02-24 23:39:00,
2013-02-24 15:44:00,63.5,34.7,30.12,West,276,0.0,6.0,34,0.00,,---,0.00,VWS V14.01,2013-02-24 23:44:00,
2013-02-24 15:49:00,63.7,34.8,30.11,West,263,0.0,6.0,34,0.00,,---,0.00,VWS V14.01,2013-02-24 23:49:00,
2013-02-24 15:54:00,63.5,34.7,30.11,WSW,254,0.0,6.0,34,0.00,,---,0.00,VWS V14.01,2013-02-24 23:54:00,
2013-02-24 15:59:00,63.5,34.7,30.11,West,269,0.0,6.0,34,0.00,,---,0.00,VWS V14.01,2013-02-24 23:59:00,
2013-02-24 16:04:00,63.1,34.3,30.11,SW,236,0.0,4.0,34,0.00,,---,0.00,VWS V14.01,2013-02-25 00:04:00,
2013-02-24 16:09:00,62.4,34.4,30.11,SW,215,0.0,4.0,35,0.00,,---,0.00,VWS V14.01,2013-02-25 00:09:00,
2013-02-24 16:14:00,62.3,35.0,30.11,SW,225,0.0,4.0,36,0.00,,---,0.00,VWS V14.01,2013-02-25 00:14:00,
2013-02-24 16:19:00,62.1,35.5,30.11,West,273,0.0,4.0,37,0.00,,---,0.00,VWS V14.01,2013-02-25 00:19:00,
2013-02-24 16:24:00,61.8,35.3,30.11,West,274,0.0,5.0,37,0.00,,---,0.00,VWS V14.01,2013-02-25 00:24:00,
2013-02-24 16:29:00,62.0,35.5,30.11,West,275,0.0,5.0,37,0.00,,---,0.00,VWS V14.01,2013-02-25 00:29:00,
2013-02-24 16:34:00,62.0,35.5,30.11,West,275,0.0,0.0,37,0.00,,---,0.00,VWS V14.01,2013-02-25 00:34:00,
2013-02-24 16:39:00,61.5,35.7,30.11,WNW,292,0.0,4.0,38,0.00,,---,0.00,VWS V14.01,2013-02-25 00:39:00,
2013-02-24 16:44:00,61.5,35.0,30.11,West,278,0.0,5.0,37,0.00,,---,0.00,VWS V14.01,2013-02-25 00:44:00,
2013-02-24 16:49:00,61.2,36.1,30.12,WNW,282,0.0,5.0,39,0.00,,---,0.00,VWS V14.01,2013-02-25 00:49:00,
2013-02-24 16:54:00,60.4,34.7,30.12,NW,313,0.0,5.0,38,0.00,,---,0.00,VWS V14.01,2013-02-25 00:54:00,
2013-02-24 16:59:00,59.8,36.1,30.12,West,275,0.0,5.0,41,0.00,,---,0.00,VWS V14.01,2013-02-25 00:59:00,
2013-02-24 17:05:00,59.0,35.3,30.12,WSW,255,0.0,4.0,41,0.00,,---,0.00,VWS V14.01,2013-02-25 01:05:00,
2013-02-24 17:10:00,58.1,35.7,30.12,WSW,255,0.0,4.0,43,0.00,,---,0.00,VWS V14.01,2013-02-25 01:10:00,
2013-02-24 17:15:00,57.3,35.6,30.12,WSW,255,0.0,4.0,44,0.00,,---,0.00,VWS V14.01,2013-02-25 01:15:00,
2013-02-24 17:20:00,56.5,36.0,30.13,WSW,255,0.0,4.0,46,0.00,,---,0.00,VWS V14.01,2013-02-25 01:20:00,
2013-02-24 17:25:00,55.6,36.8,30.13,WSW,255,0.0,4.0,49,0.00,,---,0.00,VWS V14.01,2013-02-25 01:25:00,
2013-02-24 17:30:00,54.8,36.5,30.13,WSW,255,0.0,4.0,50,0.00,,---,0.00,VWS V14.01,2013-02-25 01:30:00,
2013-02-24 17:35:00,54.1,36.9,30.13,WSW,255,0.0,0.0,52,0.00,,---,0.00,VWS V14.01,2013-02-25 01:35:00,
2013-02-24 17:40:00,53.6,36.9,30.13,WSW,255,0.0,0.0,53,0.00,,---,0.00,VWS V14.01,2013-02-25 01:40:00,
2013-02-24 17:45:00,53.2,36.5,30.13,WSW,255,0.0,0.0,53,0.00,,---,0.00,VWS V14.01,2013-02-25 01:45:00,
2013-02-24 17:50:00,52.6,36.5,30.13,WSW,255,0.0,0.0,54,0.00,,---,0.00,VWS V14.01,2013-02-25 01:50:00,
2013-02-24 17:55:00,52.3,36.6,30.13,WSW,255,0.0,0.0,55,0.00,,---,0.00,VWS V14.01,2013-02-25 01:55:00,
2013-02-24 18:00:00,52.0,36.3,30.13,WSW,255,0.0,0.0,55,0.00,,---,0.00,VWS V14.01,2013-02-25 02:00:00,
2013-02-24 18:05:00,51.4,36.2,30.13,WSW,255,0.0,0.0,56,0.00,,---,0.00,VWS V14.01,2013-02-25 02:05:00,
2013-02-24 18:10:00,51.1,36.0,30.13,WSW,255,0.0,0.0,56,0.00,,---,0.00,VWS V14.01,2013-02-25 02:10:00,
2013-02-24 18:15:00,50.5,35.0,30.13,WSW,255,0.0,0.0,55,0.00,,---,0.00,VWS V14.01,2013-02-25 02:15:00,
2013-02-24 18:20:00,50.5,34.0,30.14,WSW,255,0.0,0.0,53,0.00,,---,0.00,VWS V14.01,2013-02-25 02:20:00,
2013-02-24 18:25:00,50.4,34.4,30.14,WSW,255,0.0,0.0,54,0.00,,---,0.00,VWS V14.01,2013-02-25 02:25:00,
2013-02-24 18:30:00,50.1,33.7,30.14,WSW,255,0.0,0.0,53,0.00,,---,0.00,VWS V14.01,2013-02-25 02:30:00,
2013-02-24 18:35:00,49.9,35.3,30.14,WSW,255,0.0,0.0,57,0.00,,---,0.00,VWS V14.01,2013-02-25 02:35:00,
2013-02-24 18:40:00,49.5,35.3,30.14,WSW,255,0.0,0.0,58,0.00,,---,0.00,VWS V14.01,2013-02-25 02:40:00,
2013-02-24 18:45:00,48.9,35.2,30.14,WSW,255,0.0,0.0,59,0.00,,---,0.00,VWS V14.01,2013-02-25 02:45:00,
2013-02-24 18:50:00,48.6,35.4,30.15,WSW,255,0.0,0.0,60,0.00,,---,0.00,VWS V14.01,2013-02-25 02:50:00,
2013-02-24 18:55:00,48.2,35.8,30.15,WSW,255,0.0,0.0,62,0.00,,---,0.00,VWS V14.01,2013-02-25 02:55:00,
2013-02-24 19:00:00,47.7,35.7,30.15,West,273,0.0,0.0,63,0.00,,---,0.00,VWS V14.01,2013-02-25 03:00:00,
2013-02-24 19:05:00,47.3,35.8,30.15,West,277,0.0,0.0,64,0.00,,---,0.00,VWS V14.01,2013-02-25 03:05:00,
2013-02-24 19:10:00,47.0,35.9,30.15,West,277,0.0,0.0,65,0.00,,---,0.00,VWS V14.01,2013-02-25 03:10:00,
2013-02-24 19:15:00,46.7,35.6,30.15,WNW,282,0.0,0.0,65,0.00,,---,0.00,VWS V14.01,2013-02-25 03:15:00,
2013-02-24 19:20:00,46.5,35.4,30.16,WNW,282,0.0,0.0,65,0.00,,---,0.00,VWS V14.01,2013-02-25 03:20:00,
2013-02-24 19:25:00,46.4,35.3,30.16,WNW,282,0.0,0.0,65,0.00,,---,0.00,VWS V14.01,2013-02-25 03:25:00,
2013-02-24 19:30:00,46.5,36.2,30.16,WNW,282,0.0,0.0,67,0.00,,---,0.00,VWS V14.01,2013-02-25 03:30:00,
2013-02-24 19:35:00,46.8,36.8,30.16,WNW,282,0.0,0.0,68,0.00,,---,0.00,VWS V14.01,2013-02-25 03:35:00,
2013-02-24 19:40:00,46.8,36.8,30.16,WNW,282,0.0,0.0,68,0.00,,---,0.00,VWS V14.01,2013-02-25 03:40:00,
2013-02-24 19:45:00,46.7,37.5,30.16,SW,214,0.0,0.0,70,0.00,,---,0.00,VWS V14.01,2013-02-25 03:45:00,
2013-02-24 19:50:00,46.7,38.2,30.16,SW,214,0.0,0.0,72,0.00,,---,0.00,VWS V14.01,2013-02-25 03:50:00,
2013-02-24 19:55:00,46.8,38.6,30.16,SW,214,0.0,0.0,73,0.00,,---,0.00,VWS V14.01,2013-02-25 03:55:00,
2013-02-24 20:00:00,46.7,38.9,30.16,SW,214,0.0,0.0,74,0.00,,---,0.00,VWS V14.01,2013-02-25 04:00:00,
2013-02-24 20:05:00,46.5,38.7,30.17,SW,214,0.0,0.0,74,0.00,,---,0.00,VWS V14.01,2013-02-25 04:05:00,
2013-02-24 20:10:00,46.2,38.0,30.17,SW,214,0.0,0.0,73,0.00,,---,0.00,VWS V14.01,2013-02-25 04:10:00,
2013-02-24 20:15:00,46.0,38.2,30.17,SW,214,0.0,0.0,74,0.00,,---,0.00,VWS V14.01,2013-02-25 04:15:00,
2013-02-24 20:20:00,45.7,38.2,30.17,SW,214,0.0,0.0,75,0.00,,---,0.00,VWS V14.01,2013-02-25 04:20:00,
2013-02-24 20:25:00,45.4,38.6,30.17,SW,214,0.0,0.0,77,0.00,,---,0.00,VWS V14.01,2013-02-25 04:25:00,
2013-02-24 20:30:00,45.1,38.3,30.17,SW,214,0.0,0.0,77,0.00,,---,0.00,VWS V14.01,2013-02-25 04:30:00,
2013-02-24 20:35:00,44.8,38.4,30.17,SW,214,0.0,0.0,78,0.00,,---,0.00,VWS V14.01,2013-02-25 04:35:00,
2013-02-24 20:40:00,44.6,38.5,30.17,SW,214,0.0,0.0,79,0.00,,---,0.00,VWS V14.01,2013-02-25 04:40:00,
2013-02-24 20:45:00,44.5,38.7,30.17,SW,214,0.0,0.0,80,0.00,,---,0.00,VWS V14.01,2013-02-25 04:45:00,
2013-02-24 20:50:00,44.2,38.4,30.18,SW,214,0.0,0.0,80,0.00,,---,0.00,VWS V14.01,2013-02-25 04:50:00,
2013-02-24 20:55:00,44.2,38.4,30.18,SW,214,0.0,0.0,80,0.00,,---,0.00,VWS V14.01,2013-02-25 04:55:00,
2013-02-24 21:00:00,44.1,38.3,30.18,SW,214,0.0,0.0,80,0.00,,---,0.00,VWS V14.01,2013-02-25 05:00:00,
2013-02-24 21:02:00,43.9,38.1,30.19,SW,214,0.0,0.0,80,0.00,,---,0.00,VWS V14.01,2013-02-25 05:02:00,
2013-02-24 21:07:00,43.9,38.5,30.19,SW,214,0.0,0.0,81,0.00,,---,0.00,VWS V14.01,2013-02-25 05:07:00,
2013-02-24 21:12:00,43.6,38.5,30.19,SW,214,0.0,0.0,82,0.00,,---,0.00,VWS V14.01,2013-02-25 05:12:00,
2013-02-24 21:17:00,43.5,38.7,30.19,SW,214,0.0,0.0,83,0.00,,---,0.00,VWS V14.01,2013-02-25 05:17:00,
2013-02-24 21:22:00,43.2,38.4,30.19,SW,214,0.0,0.0,83,0.00,,---,0.00,VWS V14.01,2013-02-25 05:22:00,
2013-02-24 21:27:00,43.1,38.6,30.19,SW,214,0.0,0.0,84,0.00,,---,0.00,VWS V14.01,2013-02-25 05:27:00,
2013-02-24 21:32:00,42.9,38.7,30.19,SW,214,0.0,0.0,85,0.00,,---,0.00,VWS V14.01,2013-02-25 05:32:00,
2013-02-24 21:37:00,42.9,38.7,30.19,SW,214,0.0,0.0,85,0.00,,---,0.00,VWS V14.01,2013-02-25 05:37:00,
2013-02-24 21:42:00,42.8,38.6,30.19,SW,214,0.0,0.0,85,0.00,,---,0.00,VWS V14.01,2013-02-25 05:42:00,
2013-02-24 21:47:00,42.9,39.0,30.20,SW,214,0.0,0.0,86,0.00,,---,0.00,VWS V14.01,2013-02-25 05:47:00,
2013-02-24 21:52:00,42.9,39.0,30.20,SW,214,0.0,0.0,86,0.00,,---,0.00,VWS V14.01,2013-02-25 05:52:00,
2013-02-24 21:57:00,42.5,38.3,30.20,SW,214,0.0,0.0,85,0.00,,---,0.00,VWS V14.01,2013-02-25 05:57:00,
2013-02-24 22:02:00,42.2,38.0,30.20,SW,214,0.0,0.0,85,0.00,,---,0.00,VWS V14.01,2013-02-25 06:02:00,
2013-02-24 22:07:00,41.6,37.7,30.20,SW,214,0.0,0.0,86,0.00,,---,0.00,VWS V14.01,2013-02-25 06:07:00,
2013-02-24 22:12:00,41.2,37.6,30.20,SW,214,0.0,0.0,87,0.00,,---,0.00,VWS V14.01,2013-02-25 06:12:00,
2013-02-24 22:17:00,41.1,37.5,30.21,SW,214,0.0,0.0,87,0.00,,---,0.00,VWS V14.01,2013-02-25 06:17:00,
2013-02-24 22:22:00,40.8,37.5,30.21,SW,214,0.0,0.0,88,0.00,,---,0.00,VWS V14.01,2013-02-25 06:22:00,
2013-02-24 22:27:00,41.1,38.1,30.21,SW,214,0.0,0.0,89,0.00,,---,0.00,VWS V14.01,2013-02-25 06:27:00,
2013-02-24 22:32:00,41.2,37.9,30.21,SW,214,0.0,0.0,88,0.00,,---,0.00,VWS V14.01,2013-02-25 06:32:00,
2013-02-24 22:37:00,41.1,37.8,30.21,SW,214,0.0,0.0,88,0.00,,---,0.00,VWS V14.01,2013-02-25 06:37:00,
2013-02-24 22:43:00,40.9,37.6,30.21,SW,214,0.0,0.0,88,0.00,,---,0.00,VWS V14.01,2013-02-25 06:43:00,
2013-02-24 22:48:00,40.8,37.2,30.22,SW,214,0.0,0.0,87,0.00,,---,0.00,VWS V14.01,2013-02-25 06:48:00,
2013-02-24 22:53:00,40.5,36.9,30.22,SW,214,0.0,0.0,87,0.00,,---,0.00,VWS V14.01,2013-02-25 06:53:00,
2013-02-24 22:58:00,40.2,36.7,30.22,SW,214,0.0,0.0,87,0.00,,---,0.00,VWS V14.01,2013-02-25 06:58:00,
2013-02-24 23:03:00,40.1,36.5,30.22,SW,214,0.0,0.0,87,0.00,,---,0.00,VWS V14.01,2013-02-25 07:03:00,
2013-02-24 23:08:00,39.8,36.5,30.22,SW,214,0.0,0.0,88,0.00,,---,0.00,VWS V14.01,2013-02-25 07:08:00,
2013-02-24 23:13:00,39.5,36.5,30.22,SW,214,0.0,0.0,89,0.00,,---,0.00,VWS V14.01,2013-02-25 07:13:00,
2013-02-24 23:18:00,39.3,36.3,30.22,SW,214,0.0,0.0,89,0.00,,---,0.00,VWS V14.01,2013-02-25 07:18:00,
2013-02-24 23:23:00,39.3,36.3,30.22,SW,214,0.0,0.0,89,0.00,,---,0.00,VWS V14.01,2013-02-25 07:23:00,
2013-02-24 23:28:00,39.3,36.3,30.22,SW,214,0.0,0.0,89,0.00,,---,0.00,VWS V14.01,2013-02-25 07:28:00,
2013-02-24 23:33:00,39.3,36.3,30.22,SW,214,0.0,0.0,89,0.00,,---,0.00,VWS V14.01,2013-02-25 07:33:00,
2013-02-24 23:38:00,39.2,36.2,30.22,SW,214,0.0,0.0,89,0.00,,---,0.00,VWS V14.01,2013-02-25 07:38:00,
2013-02-24 23:43:00,39.2,36.2,30.22,SW,214,0.0,0.0,89,0.00,,---,0.00,VWS V14.01,2013-02-25 07:43:00,
2013-02-24 23:48:00,39.1,36.1,30.22,SW,214,0.0,0.0,89,0.00,,---,0.00,VWS V14.01,2013-02-25 07:48:00,
2013-02-24 23:53:00,38.9,35.9,30.22,SW,214,0.0,0.0,89,0.00,,---,0.00,VWS V14.01,2013-02-25 07:53:00,
2013-02-24 23:59:00,38.8,35.8,30.22,SW,214,0.0,0.0,89,0.00,,---,0.00,VWS V14.01,2013-02-25 07:59:00,